createdAt,value
2018-04-09T00:01:50.725Z,12.60
2018-04-09T00:04:18.117Z,12.97
2018-04-09T00:06:45.512Z,12.50
2018-04-09T00:09:12.896Z,12.13
2018-04-09T00:11:40.308Z,12.53
2018-04-09T00:14:07.697Z,12.67
2018-04-09T00:16:35.069Z,13.63
2018-04-09T00:19:02.485Z,12.43
2018-04-09T00:21:29.870Z,12.67
2018-04-09T00:23:57.280Z,12.50
2018-04-09T00:26:24.668Z,12.57
2018-04-09T00:28:52.077Z,12.10
2018-04-09T00:31:19.476Z,12.90
2018-04-09T00:33:46.864Z,12.53
2018-04-09T00:36:14.246Z,12.67
2018-04-09T00:38:41.662Z,13.50
2018-04-09T00:41:09.051Z,12.57
2018-04-09T00:43:36.429Z,13.43
2018-04-09T00:46:03.820Z,12.50
2018-04-09T00:48:31.208Z,12.40
2018-04-09T00:50:58.588Z,12.70
2018-04-09T00:53:37.957Z,12.30
2018-04-09T00:56:05.337Z,14.00
2018-04-09T00:58:32.740Z,12.77
2018-04-09T01:01:00.144Z,11.83
2018-04-09T01:03:27.544Z,12.93
2018-04-09T01:05:54.928Z,12.73
2018-04-09T01:08:22.317Z,12.07
2018-04-09T01:10:49.705Z,11.90
2018-04-09T01:13:17.108Z,12.60
2018-04-09T01:15:44.525Z,12.53
2018-04-09T01:18:11.907Z,12.43
2018-04-09T01:20:39.292Z,13.37
2018-04-09T01:23:06.685Z,12.20
2018-04-09T01:25:34.080Z,13.07
2018-04-09T01:28:01.466Z,12.83
2018-04-09T01:30:28.868Z,12.63
2018-04-09T01:32:56.294Z,12.33
2018-04-09T01:35:23.684Z,12.20
2018-04-09T01:37:51.084Z,12.20
2018-04-09T01:40:18.464Z,12.43
2018-04-09T01:42:45.861Z,12.00
2018-04-09T01:45:13.257Z,12.30
2018-04-09T01:47:40.828Z,12.30
2018-04-09T01:50:08.244Z,12.17
2018-04-09T01:52:35.632Z,13.20
2018-04-09T01:55:03.044Z,13.27
2018-04-09T01:57:30.417Z,12.07
2018-04-09T01:59:57.908Z,11.30
2018-04-09T02:02:25.292Z,11.33
2018-04-09T02:04:52.680Z,11.73
2018-04-09T02:07:20.080Z,12.73
2018-04-09T02:09:47.472Z,12.63
2018-04-09T02:12:14.881Z,12.47
2018-04-09T02:14:42.268Z,11.50
2018-04-09T02:17:09.656Z,12.33
2018-04-09T02:19:37.046Z,12.70
2018-04-09T02:22:04.453Z,12.20
2018-04-09T02:24:31.840Z,12.23
2018-04-09T02:26:59.225Z,12.73
2018-04-09T02:29:26.622Z,12.10
2018-04-09T02:31:54.013Z,12.63
2018-04-09T02:34:21.393Z,11.90
2018-04-09T02:36:48.800Z,12.10
2018-04-09T02:39:16.188Z,12.00
2018-04-09T02:41:43.588Z,12.93
2018-04-09T02:44:10.979Z,12.23
2018-04-09T02:46:38.363Z,12.00
2018-04-09T02:49:05.768Z,11.47
2018-04-09T02:51:33.164Z,12.00
2018-04-09T02:54:00.542Z,12.07
2018-04-09T02:56:27.958Z,12.20
2018-04-09T02:58:55.376Z,12.40
2018-04-09T03:01:22.774Z,11.70
2018-04-09T03:03:50.178Z,11.67
2018-04-09T03:06:17.582Z,12.90
2018-04-09T03:08:44.956Z,11.33
2018-04-09T03:11:12.357Z,11.50
2018-04-09T03:13:39.753Z,11.87
2018-04-09T03:16:07.139Z,11.60
2018-04-09T03:18:34.517Z,11.90
2018-04-09T03:21:01.929Z,13.60
2018-04-09T03:23:29.327Z,12.03
2018-04-09T03:25:56.720Z,12.50
2018-04-09T03:28:24.104Z,12.20
2018-04-09T03:30:51.493Z,11.70
2018-04-09T03:33:18.880Z,12.47
2018-04-09T03:35:46.278Z,12.07
2018-04-09T03:38:13.672Z,12.73
2018-04-09T03:40:41.069Z,12.00
2018-04-09T03:43:08.444Z,11.60
2018-04-09T03:45:35.901Z,11.90
2018-04-09T03:48:03.300Z,11.93
2018-04-09T03:50:30.685Z,12.00
2018-04-09T03:52:58.088Z,12.20
2018-04-09T03:55:25.472Z,12.80
2018-04-09T03:57:52.865Z,12.17
2018-04-09T04:00:20.284Z,11.60
2018-04-09T04:02:47.704Z,12.07
2018-04-09T04:05:15.090Z,11.43
2018-04-09T04:07:42.476Z,11.40
2018-04-09T04:10:09.905Z,12.03
2018-04-09T04:12:37.297Z,11.77
2018-04-09T04:15:04.746Z,11.27
2018-04-09T04:17:43.804Z,11.47
2018-04-09T04:20:22.861Z,11.40
2018-04-09T04:22:50.241Z,11.80
2018-04-09T04:25:17.616Z,11.87
2018-04-09T04:27:45.013Z,11.97
2018-04-09T04:30:12.396Z,12.40
2018-04-09T04:32:39.800Z,12.60
2018-04-09T04:35:07.189Z,11.97
2018-04-09T04:37:34.573Z,12.40
2018-04-09T04:40:01.965Z,11.23
2018-04-09T04:42:29.344Z,12.20
2018-04-09T04:44:56.755Z,12.10
2018-04-09T04:47:24.151Z,13.53
2018-04-09T04:49:51.640Z,13.80
2018-04-09T04:52:19.033Z,12.83
2018-04-09T04:54:46.424Z,13.47
2018-04-09T04:57:13.872Z,14.03
2018-04-09T04:59:41.273Z,13.57
2018-04-09T05:02:08.672Z,13.00
2018-04-09T05:04:36.097Z,12.93
2018-04-09T05:07:03.503Z,12.43
2018-04-09T05:09:30.948Z,11.90
2018-04-09T05:11:58.344Z,13.77
2018-04-09T05:14:25.759Z,13.53
2018-04-09T05:16:53.157Z,13.30
2018-04-09T05:19:20.556Z,13.23
2018-04-09T05:21:47.985Z,13.07
2018-04-09T05:24:15.370Z,13.43
2018-04-09T05:26:42.760Z,12.03
2018-04-09T05:29:10.161Z,12.00
2018-04-09T05:31:37.535Z,13.80
2018-04-09T05:34:04.936Z,13.47
2018-04-09T05:36:32.353Z,12.63
2018-04-09T05:38:59.724Z,11.83
2018-04-09T05:41:27.145Z,12.90
2018-04-09T05:43:54.513Z,12.80
2018-04-09T05:46:21.904Z,12.90
2018-04-09T05:48:49.408Z,12.83
2018-04-09T05:51:16.798Z,13.47
2018-04-09T05:53:44.352Z,13.37
2018-04-09T05:56:11.743Z,12.60
2018-04-09T05:58:39.155Z,13.97
2018-04-09T06:01:06.558Z,12.60
2018-04-09T06:03:33.947Z,13.60
2018-04-09T06:06:01.424Z,14.50
2018-04-09T06:08:28.828Z,14.80
2018-04-09T06:10:56.224Z,14.93
2018-04-09T06:13:23.612Z,15.07
2018-04-09T06:15:51.037Z,14.87
2018-04-09T06:18:18.447Z,15.80
2018-04-09T06:20:45.854Z,14.57
2018-04-09T06:23:13.266Z,15.20
2018-04-09T06:25:40.633Z,15.70
2018-04-09T06:28:08.036Z,15.87
2018-04-09T06:30:35.420Z,15.70
2018-04-09T06:33:02.840Z,13.23
2018-04-09T06:35:30.221Z,14.03
2018-04-09T06:37:57.606Z,14.57
2018-04-09T06:40:24.997Z,15.37
2018-04-09T06:42:52.372Z,15.37
2018-04-09T06:45:19.759Z,16.60
2018-04-09T06:47:47.164Z,14.07
2018-04-09T06:50:14.548Z,15.07
2018-04-09T06:52:42.392Z,12.70
2018-04-09T06:55:09.805Z,13.87
2018-04-09T06:57:37.188Z,14.30
2018-04-09T07:00:04.580Z,15.33
2018-04-09T07:02:32.013Z,14.87
2018-04-09T07:04:59.408Z,14.30
2018-04-09T07:07:26.803Z,15.00
2018-04-09T07:09:54.189Z,14.33
2018-04-09T07:12:21.600Z,14.80
2018-04-09T07:14:48.993Z,14.57
2018-04-09T07:17:16.408Z,15.40
2018-04-09T07:19:43.776Z,16.67
2018-04-09T07:22:11.175Z,15.63
2018-04-09T07:24:38.592Z,17.00
2018-04-09T07:27:05.982Z,17.80
2018-04-09T07:29:33.391Z,17.30
2018-04-09T07:32:00.804Z,16.93
2018-04-09T07:34:28.204Z,19.37
2018-04-09T07:36:55.584Z,21.63
2018-04-09T07:39:23.000Z,24.17
2018-04-09T07:41:50.365Z,24.47
2018-04-09T07:44:17.775Z,23.80
2018-04-09T07:46:45.157Z,25.83
2018-04-09T07:49:12.525Z,27.00
2018-04-09T07:51:39.913Z,27.60
2018-04-09T07:54:07.316Z,25.17
2018-04-09T07:56:34.783Z,27.50
2018-04-09T07:59:02.165Z,27.17
2018-04-09T08:01:29.561Z,25.70
2018-04-09T08:03:56.936Z,24.43
2018-04-09T08:06:24.342Z,23.40
2018-04-09T08:08:51.720Z,23.57
2018-04-09T08:11:19.112Z,25.67
2018-04-09T08:13:46.499Z,28.80
2018-04-09T08:16:13.947Z,29.80
2018-04-09T08:18:41.320Z,28.23
2018-04-09T08:21:08.720Z,30.63
2018-04-09T08:23:36.163Z,30.90
2018-04-09T08:26:03.552Z,27.50
2018-04-09T08:28:30.971Z,27.27
2018-04-09T08:30:58.450Z,27.83
2018-04-09T08:33:25.931Z,26.47
2018-04-09T08:35:53.339Z,25.10
2018-04-09T08:38:20.863Z,23.20
2018-04-09T08:40:48.252Z,24.83
2018-04-09T08:43:15.698Z,23.60
2018-04-09T08:45:43.088Z,24.47
2018-04-09T08:48:10.583Z,25.10
2018-04-09T08:50:37.965Z,25.33
2018-04-09T08:53:05.727Z,27.07
2018-04-09T08:55:33.154Z,26.10
2018-04-09T08:58:00.525Z,25.30
2018-04-09T09:00:27.903Z,25.57
2018-04-09T09:02:55.357Z,27.00
2018-04-09T09:05:22.750Z,24.83
2018-04-09T09:07:50.135Z,24.83
2018-04-09T09:10:17.521Z,24.03
2018-04-09T09:12:44.959Z,23.60
2018-04-09T09:15:12.359Z,26.10
2018-04-09T09:17:39.757Z,24.63
2018-04-09T09:20:07.180Z,25.30
2018-04-09T09:22:34.608Z,22.13
2018-04-09T09:25:02.001Z,23.87
2018-04-09T09:27:29.389Z,22.37
2018-04-09T09:29:56.795Z,22.80
2018-04-09T09:32:24.175Z,21.37
2018-04-09T09:34:51.576Z,21.10
2018-04-09T09:37:18.986Z,23.77
2018-04-09T09:39:46.376Z,23.70
2018-04-09T09:42:13.770Z,24.73
2018-04-09T09:44:41.165Z,26.17
2018-04-09T09:47:08.633Z,25.37
2018-04-09T09:49:36.036Z,25.73
2018-04-09T09:52:03.439Z,25.10
2018-04-09T09:54:30.830Z,27.17
2018-04-09T09:56:58.212Z,29.47
2018-04-09T09:59:25.600Z,28.10
2018-04-09T10:01:52.997Z,27.77
2018-04-09T10:04:20.381Z,28.13
2018-04-09T10:06:47.783Z,28.90
2018-04-09T10:09:15.160Z,29.17
2018-04-09T10:11:42.569Z,27.10
2018-04-09T10:14:10.208Z,28.27
2018-04-09T10:16:37.620Z,27.07
2018-04-09T10:19:05.001Z,26.20
2018-04-09T10:21:32.447Z,24.57
2018-04-09T10:23:59.820Z,25.07
2018-04-09T10:26:27.200Z,24.07
2018-04-09T10:28:54.614Z,24.70
2018-04-09T10:31:22.004Z,24.80
2018-04-09T10:33:49.428Z,24.83
2018-04-09T10:36:16.822Z,25.63
2018-04-09T10:38:44.204Z,25.10
2018-04-09T10:41:11.592Z,24.97
2018-04-09T10:43:38.980Z,25.57
2018-04-09T10:46:06.612Z,23.30
2018-04-09T10:48:34.005Z,25.60
2018-04-09T10:51:01.400Z,24.30
2018-04-09T10:53:28.798Z,24.27
2018-04-09T10:55:56.188Z,25.77
2018-04-09T10:58:23.593Z,26.97
2018-04-09T11:00:51.000Z,24.67
2018-04-09T11:03:18.670Z,26.80
2018-04-09T11:05:46.053Z,26.60
2018-04-09T11:08:13.453Z,24.90
2018-04-09T11:10:40.836Z,25.73
2018-04-09T11:13:08.255Z,25.53
2018-04-09T11:15:35.624Z,26.57
2018-04-09T11:18:03.014Z,28.27
2018-04-09T11:20:30.430Z,27.57
2018-04-09T11:22:57.841Z,28.37
2018-04-09T11:25:25.216Z,26.43
2018-04-09T11:27:52.605Z,27.07
2018-04-09T11:30:19.988Z,27.67
2018-04-09T11:32:47.381Z,26.17
2018-04-09T11:35:14.773Z,27.80
2018-04-09T11:37:42.166Z,26.43
2018-04-09T11:40:09.550Z,27.57
2018-04-09T11:42:36.934Z,27.30
2018-04-09T11:45:04.323Z,27.70
2018-04-09T11:47:31.718Z,27.47
2018-04-09T11:49:59.109Z,26.43
2018-04-09T11:52:26.545Z,25.70
2018-04-09T11:54:53.933Z,24.47
2018-04-09T11:57:21.339Z,26.27
2018-04-09T11:59:48.715Z,25.03
2018-04-09T12:02:16.136Z,26.80
2018-04-09T12:04:43.515Z,27.43
2018-04-09T12:07:10.902Z,28.80
2018-04-09T12:09:38.338Z,27.67
2018-04-09T12:12:05.764Z,26.70
2018-04-09T12:14:33.148Z,28.63
2018-04-09T12:17:00.542Z,29.03
2018-04-09T12:19:28.005Z,28.30
2018-04-09T12:21:55.446Z,28.03
2018-04-09T12:24:22.838Z,27.33
2018-04-09T12:26:50.227Z,27.87
2018-04-09T12:29:17.622Z,30.50
2018-04-09T12:31:45.005Z,27.40
2018-04-09T12:34:12.408Z,28.30
2018-04-09T12:36:39.779Z,28.13
2018-04-09T12:39:07.168Z,28.60
2018-04-09T12:41:34.560Z,28.07
2018-04-09T12:44:01.950Z,28.40
2018-04-09T12:46:29.366Z,29.03
2018-04-09T12:48:56.765Z,27.87
2018-04-09T12:51:24.142Z,31.93
2018-04-09T12:53:51.556Z,31.30
2018-04-09T12:56:18.955Z,34.60
2018-04-09T12:58:46.326Z,33.90
2018-04-09T13:01:13.747Z,35.70
2018-04-09T13:03:41.511Z,34.90
2018-04-09T13:06:08.896Z,35.03
2018-04-09T13:08:36.274Z,35.30
2018-04-09T13:11:03.670Z,35.97
2018-04-09T13:13:31.059Z,36.00
2018-04-09T13:15:58.458Z,39.10
2018-04-09T13:18:25.846Z,39.20
2018-04-09T13:20:53.237Z,39.37
2018-04-09T13:23:20.631Z,40.00
2018-04-09T13:25:49.353Z,36.27
2018-04-09T13:28:16.742Z,42.67
2018-04-09T13:30:44.154Z,44.37
2018-04-09T13:33:11.542Z,48.50
2018-04-09T13:35:38.962Z,48.57
2018-04-09T13:38:06.326Z,46.67
2018-04-09T13:40:33.715Z,47.50
2018-04-09T13:43:01.102Z,43.20
2018-04-09T13:45:28.494Z,47.07
2018-04-09T13:47:55.893Z,47.30
2018-04-09T13:50:23.282Z,50.93
2018-04-09T13:52:50.675Z,49.67
2018-04-09T13:55:18.054Z,48.50
2018-04-09T13:57:45.458Z,53.03
2018-04-09T14:00:12.850Z,52.47
2018-04-09T14:02:40.254Z,51.43
2018-04-09T14:05:07.654Z,51.07
2018-04-09T14:07:35.034Z,56.30
2018-04-09T14:10:02.478Z,54.90
2018-04-09T14:12:29.854Z,51.23
2018-04-09T14:14:57.241Z,53.63
2018-04-09T14:17:24.628Z,50.80
2018-04-09T14:19:52.006Z,53.63
2018-04-09T14:22:19.566Z,56.67
2018-04-09T14:24:46.946Z,55.03
2018-04-09T14:27:14.347Z,51.57
2018-04-09T14:29:41.724Z,55.60
2018-04-09T14:32:09.127Z,58.77
2018-04-09T14:34:36.502Z,57.23
2018-04-09T14:37:03.887Z,57.00
2018-04-09T14:39:31.278Z,53.33
2018-04-09T14:41:58.663Z,56.70
2018-04-09T14:44:26.050Z,57.67
2018-04-09T14:46:53.452Z,53.93
2018-04-09T14:49:20.846Z,55.23
2018-04-09T14:51:48.227Z,52.57
2018-04-09T14:54:15.619Z,56.00
2018-04-09T14:56:43.007Z,56.37
2018-04-09T14:59:10.391Z,51.67
2018-04-09T15:01:37.782Z,52.40
2018-04-09T15:04:05.170Z,53.00
2018-04-09T15:06:32.562Z,55.53
2018-04-09T15:08:59.938Z,48.30
2018-04-09T15:11:27.334Z,52.80
2018-04-09T15:13:54.718Z,52.37
2018-04-09T15:16:22.115Z,50.93
2018-04-09T15:18:49.495Z,51.73
2018-04-09T15:21:16.891Z,54.57
2018-04-09T15:23:44.282Z,53.90
2018-04-09T15:26:11.703Z,53.10
2018-04-09T15:28:39.086Z,54.73
2018-04-09T15:31:06.496Z,51.43
2018-04-09T15:33:33.870Z,46.50
2018-04-09T15:36:01.266Z,52.53
2018-04-09T15:38:28.651Z,44.83
2018-04-09T15:40:56.038Z,48.77
2018-04-09T15:43:23.422Z,49.60
2018-04-09T15:45:50.810Z,54.30
2018-04-09T15:48:18.222Z,48.20
2018-04-09T15:50:45.594Z,47.17
2018-04-09T15:53:12.986Z,52.90
2018-04-09T15:55:40.366Z,51.27
2018-04-09T15:58:07.750Z,52.17
2018-04-09T16:00:35.137Z,52.30
2018-04-09T16:03:02.529Z,52.10
2018-04-09T16:05:29.911Z,47.17
2018-04-09T16:07:57.299Z,43.70
2018-04-09T16:10:24.686Z,47.40
2018-04-09T16:12:52.074Z,52.77
2018-04-09T16:15:19.463Z,47.87
2018-04-09T16:17:58.454Z,45.20
2018-04-09T16:20:25.838Z,46.53
2018-04-09T16:22:53.244Z,45.30
2018-04-09T16:25:20.690Z,50.70
2018-04-09T16:27:48.087Z,51.53
2018-04-09T16:30:15.470Z,49.83
2018-04-09T16:32:42.853Z,47.73
2018-04-09T16:35:10.241Z,45.20
2018-04-09T16:37:37.622Z,47.50
2018-04-09T16:40:05.019Z,42.90
2018-04-09T16:42:32.401Z,43.70
2018-04-09T16:44:59.858Z,43.53
2018-04-09T16:47:27.282Z,44.30
2018-04-09T16:49:54.696Z,41.80
2018-04-09T16:52:22.059Z,42.60
2018-04-09T16:54:49.447Z,39.63
2018-04-09T16:57:16.827Z,40.43
2018-04-09T16:59:44.215Z,41.70
2018-04-09T17:02:11.602Z,41.63
2018-04-09T17:04:38.998Z,41.00
2018-04-09T17:07:06.394Z,45.77
2018-04-09T17:09:33.912Z,47.90
2018-04-09T17:12:01.306Z,38.90
2018-04-09T17:14:28.692Z,37.77
2018-04-09T17:16:56.078Z,41.97
2018-04-09T17:19:23.493Z,46.40
2018-04-09T17:21:50.875Z,41.53
2018-04-09T17:24:18.262Z,39.80
2018-04-09T17:26:45.650Z,37.10
2018-04-09T17:29:13.030Z,40.10
2018-04-09T17:31:40.467Z,40.93
2018-04-09T17:34:07.850Z,37.93
2018-04-09T17:36:35.242Z,38.13
2018-04-09T17:39:02.622Z,38.77
2018-04-09T17:41:30.011Z,39.90
2018-04-09T17:43:57.394Z,42.27
2018-04-09T17:46:24.792Z,42.90
2018-04-09T17:48:52.206Z,40.73
2018-04-09T17:51:19.591Z,41.57
2018-04-09T17:53:47.052Z,39.13
2018-04-09T17:56:14.439Z,37.87
2018-04-09T17:58:41.896Z,36.40
2018-04-09T18:01:09.343Z,33.73
2018-04-09T18:03:36.799Z,33.83
2018-04-09T18:06:04.270Z,33.70
2018-04-09T18:08:31.662Z,33.63
2018-04-09T18:10:59.070Z,28.20
2018-04-09T18:13:26.463Z,27.80
2018-04-09T18:15:53.846Z,26.23
2018-04-09T18:18:21.239Z,21.80
2018-04-09T18:20:48.636Z,21.10
2018-04-09T18:23:16.025Z,20.40
2018-04-09T18:25:43.426Z,18.70
2018-04-09T18:28:10.820Z,18.67
2018-04-09T18:30:38.198Z,17.77
2018-04-09T18:33:05.586Z,17.60
2018-04-09T18:35:32.990Z,18.00
2018-04-09T18:38:00.387Z,16.00
2018-04-09T18:40:27.774Z,16.07
2018-04-09T18:42:55.472Z,16.53
2018-04-09T18:45:22.902Z,15.83
2018-04-09T18:47:50.335Z,17.07
2018-04-09T18:50:17.743Z,15.77
2018-04-09T18:52:45.245Z,15.63
2018-04-09T18:55:12.622Z,16.40
2018-04-09T18:57:40.014Z,16.33
2018-04-09T19:00:07.406Z,15.17
2018-04-09T19:02:34.791Z,13.97
2018-04-09T19:05:02.183Z,16.77
2018-04-09T19:07:29.610Z,15.37
2018-04-09T19:09:56.994Z,14.70
2018-04-09T19:12:24.380Z,16.10
2018-04-09T19:14:51.771Z,16.47
2018-04-09T19:17:19.195Z,16.30
2018-04-09T19:19:46.640Z,18.10
2018-04-09T19:22:14.003Z,16.10
2018-04-09T19:24:41.455Z,17.90
2018-04-09T19:27:08.854Z,18.77
2018-04-09T19:29:36.234Z,18.03
2018-04-09T19:32:03.634Z,18.23
2018-04-09T19:34:31.030Z,16.63
2018-04-09T19:37:03.979Z,17.80
2018-04-09T19:42:47.782Z,18.80
2018-04-09T19:45:15.171Z,18.50
2018-04-09T19:47:42.650Z,18.27
2018-04-09T19:50:10.034Z,17.90
2018-04-09T19:52:37.447Z,18.40
2018-04-09T19:55:04.818Z,17.50
2018-04-09T19:57:32.205Z,18.73
2018-04-09T19:59:59.599Z,17.50
2018-04-09T20:02:26.982Z,17.50
2018-04-09T20:04:54.383Z,17.10
2018-04-09T20:07:21.763Z,15.87
2018-04-09T20:09:49.150Z,16.47
2018-04-09T20:12:16.537Z,15.90
2018-04-09T20:14:43.926Z,15.90
2018-04-09T20:17:11.310Z,16.30
2018-04-09T20:19:38.698Z,15.37
2018-04-09T20:22:06.112Z,16.40
2018-04-09T20:24:33.478Z,15.50
2018-04-09T20:27:00.859Z,16.73
2018-04-09T20:29:28.243Z,16.80
2018-04-09T20:31:55.633Z,16.20
2018-04-09T20:34:23.008Z,16.50
2018-04-09T20:36:50.398Z,17.03
2018-04-09T20:39:17.779Z,17.80
2018-04-09T20:41:45.167Z,16.20
2018-04-09T20:44:12.550Z,16.67
2018-04-09T20:46:39.950Z,17.00
2018-04-09T20:49:07.330Z,17.30
2018-04-09T20:51:34.747Z,18.60
2018-04-09T20:54:02.135Z,16.73
2018-04-09T20:56:29.527Z,17.00
2018-04-09T20:58:56.919Z,16.87
2018-04-09T21:01:24.298Z,16.17
2018-04-09T21:03:51.686Z,17.37
2018-04-09T21:06:19.126Z,16.27
2018-04-09T21:08:46.467Z,16.30
2018-04-09T21:11:13.850Z,14.83
2018-04-09T21:13:41.252Z,16.80
2018-04-09T21:16:08.634Z,15.57
2018-04-09T21:18:36.034Z,15.50
2018-04-09T21:21:03.418Z,16.90
2018-04-09T21:23:30.802Z,17.00
2018-04-09T21:25:58.199Z,16.17
2018-04-09T21:28:25.579Z,16.23
2018-04-09T21:30:52.966Z,17.23
2018-04-09T21:33:20.346Z,17.17
2018-04-09T21:35:47.747Z,16.70
2018-04-09T21:38:15.126Z,16.97
2018-04-09T21:40:42.518Z,16.17
2018-04-09T21:43:09.902Z,16.20
2018-04-09T21:45:37.288Z,17.00
2018-04-09T21:48:04.675Z,16.90
2018-04-09T21:50:32.070Z,17.00
2018-04-09T21:52:59.546Z,15.90
2018-04-09T21:55:26.932Z,16.80
2018-04-09T21:57:54.321Z,18.60
2018-04-09T22:00:21.697Z,18.17
2018-04-09T22:02:49.102Z,18.70
2018-04-09T22:05:16.490Z,17.40
2018-04-09T22:07:43.899Z,17.40
2018-04-09T22:10:11.274Z,17.67
2018-04-09T22:12:38.663Z,17.10
2018-04-09T22:15:06.047Z,17.50
2018-04-09T22:17:33.442Z,16.90
2018-04-09T22:20:00.835Z,17.83
2018-04-09T22:22:28.219Z,17.97
2018-04-09T22:24:55.606Z,17.10
2018-04-09T22:27:22.990Z,17.70
2018-04-09T22:29:50.379Z,17.73
2018-04-09T22:32:17.758Z,17.17
2018-04-09T22:34:45.151Z,17.43
2018-04-09T22:37:12.531Z,16.50
2018-04-09T22:39:39.919Z,18.37
2018-04-09T22:42:07.303Z,17.40
2018-04-09T22:44:34.713Z,17.07
2018-04-09T22:47:02.078Z,18.07
2018-04-09T22:49:29.527Z,17.73
2018-04-09T22:51:56.887Z,17.87
2018-04-09T22:54:24.274Z,18.47
2018-04-09T22:56:51.733Z,17.47
2018-04-09T22:59:19.118Z,18.77
2018-04-09T23:01:46.514Z,19.37
2018-04-09T23:04:13.909Z,19.60
2018-04-09T23:06:41.298Z,19.30
2018-04-09T23:09:08.690Z,20.17
2018-04-09T23:11:36.082Z,22.10
2018-04-09T23:14:03.461Z,22.30
2018-04-09T23:16:30.855Z,23.47
2018-04-09T23:18:58.234Z,24.40
2018-04-09T23:21:25.646Z,24.17
2018-04-09T23:23:53.027Z,25.73
2018-04-09T23:26:20.414Z,23.13
2018-04-09T23:28:47.804Z,24.53
2018-04-09T23:31:15.192Z,27.73
2018-04-09T23:33:42.582Z,27.00
2018-04-09T23:36:09.970Z,27.60
2018-04-09T23:38:37.362Z,27.90
2018-04-09T23:41:04.746Z,29.70
2018-04-09T23:43:32.134Z,29.23
2018-04-09T23:45:59.515Z,30.67
2018-04-09T23:48:26.914Z,31.33
2018-04-09T23:50:54.298Z,33.90
2018-04-09T23:53:21.677Z,33.37
2018-04-09T23:55:49.083Z,33.77
2018-04-09T23:58:16.469Z,34.27
